sensor_id;sensor_type;location;lat;lon;timestamp;temperature;humidity
32522;DHT22;18963;51.504;5.316;2024-03-02T00:00:42;8.60;99.90
32522;DHT22;18963;51.504;5.316;2024-03-02T00:03:08;8.50;99.90
32522;DHT22;18963;51.504;5.316;2024-03-02T00:05:37;8.20;99.90
32522;DHT22;18963;51.504;5.316;2024-03-02T00:08:05;8.00;99.90
32522;DHT22;18963;51.504;5.316;2024-03-02T00:10:38;7.70;99.90
32522;DHT22;18963;51.504;5.316;2024-03-02T00:13:10;7.50;99.90
32522;DHT22;18963;51.504;5.316;2024-03-02T00:15:42;7.30;99.90
32522;DHT22;18963;51.504;5.316;2024-03-02T00:18:11;7.20;99.90
32522;DHT22;18963;51.504;5.316;2024-03-02T00:20:38;7.10;99.90
32522;DHT22;18963;51.504;5.316;2024-03-02T00:23:05;7.00;99.90
32522;DHT22;18963;51.504;5.316;2024-03-02T00:25:45;6.90;99.90
32522;DHT22;18963;51.504;5.316;2024-03-02T00:28:21;6.90;99.90
32522;DHT22;18963;51.504;5.316;2024-03-02T00:30:57;6.80;99.90
32522;DHT22;18963;51.504;5.316;2024-03-02T00:33:25;6.80;99.90
32522;DHT22;18963;51.504;5.316;2024-03-02T00:35:51;6.70;99.90
32522;DHT22;18963;51.504;5.316;2024-03-02T00:38:17;6.70;99.90
32522;DHT22;18963;51.504;5.316;2024-03-02T00:40:44;6.70;99.90
32522;DHT22;18963;51.504;5.316;2024-03-02T00:46:07;6.70;99.90
32522;DHT22;18963;51.504;5.316;2024-03-02T00:48:33;6.70;99.90
32522;DHT22;18963;51.504;5.316;2024-03-02T00:51:03;6.70;99.90
32522;DHT22;18963;51.504;5.316;2024-03-02T00:53:30;6.60;99.90
32522;DHT22;18963;51.504;5.316;2024-03-02T00:55:56;6.70;99.90
32522;DHT22;18963;51.504;5.316;2024-03-02T00:58:22;6.60;99.90
32522;DHT22;18963;51.504;5.316;2024-03-02T01:00:47;6.60;99.90
32522;DHT22;18963;51.504;5.316;2024-03-02T01:03:13;6.60;99.90
32522;DHT22;18963;51.504;5.316;2024-03-02T01:05:42;6.60;99.90
32522;DHT22;18963;51.504;5.316;2024-03-02T01:08:09;6.60;99.90
32522;DHT22;18963;51.504;5.316;2024-03-02T01:10:35;6.60;99.90
32522;DHT22;18963;51.504;5.316;2024-03-02T01:13:01;6.60;99.90
32522;DHT22;18963;51.504;5.316;2024-03-02T01:15:26;6.60;99.90
32522;DHT22;18963;51.504;5.316;2024-03-02T01:17:52;6.60;99.90
32522;DHT22;18963;51.504;5.316;2024-03-02T01:20:18;6.60;99.90
32522;DHT22;18963;51.504;5.316;2024-03-02T01:22:43;6.50;99.90
32522;DHT22;18963;51.504;5.316;2024-03-02T01:25:09;6.60;99.90
32522;DHT22;18963;51.504;5.316;2024-03-02T01:27:35;6.60;99.90
32522;DHT22;18963;51.504;5.316;2024-03-02T01:30:01;6.60;99.90
32522;DHT22;18963;51.504;5.316;2024-03-02T01:32:26;6.60;99.90
32522;DHT22;18963;51.504;5.316;2024-03-02T01:34:52;6.60;99.90
32522;DHT22;18963;51.504;5.316;2024-03-02T01:37:18;6.60;99.90
32522;DHT22;18963;51.504;5.316;2024-03-02T01:39:43;6.60;99.90
32522;DHT22;18963;51.504;5.316;2024-03-02T01:42:09;6.60;99.90
32522;DHT22;18963;51.504;5.316;2024-03-02T01:44:36;6.60;99.90
32522;DHT22;18963;51.504;5.316;2024-03-02T01:47:02;6.60;99.90
32522;DHT22;18963;51.504;5.316;2024-03-02T01:49:27;6.60;99.90
32522;DHT22;18963;51.504;5.316;2024-03-02T01:51:53;6.60;99.90
32522;DHT22;18963;51.504;5.316;2024-03-02T01:54:18;6.60;99.90
32522;DHT22;18963;51.504;5.316;2024-03-02T01:56:44;6.50;99.90
32522;DHT22;18963;51.504;5.316;2024-03-02T01:59:10;6.60;99.90
32522;DHT22;18963;51.504;5.316;2024-03-02T02:01:36;6.60;99.90
32522;DHT22;18963;51.504;5.316;2024-03-02T02:04:02;6.50;99.90
32522;DHT22;18963;51.504;5.316;2024-03-02T02:06:27;6.50;99.90
32522;DHT22;18963;51.504;5.316;2024-03-02T02:08:53;6.50;99.90
32522;DHT22;18963;51.504;5.316;2024-03-02T02:11:19;6.50;99.90
32522;DHT22;18963;51.504;5.316;2024-03-02T02:13:44;6.50;99.90
32522;DHT22;18963;51.504;5.316;2024-03-02T02:16:10;6.50;99.90
32522;DHT22;18963;51.504;5.316;2024-03-02T02:18:36;6.50;99.90
32522;DHT22;18963;51.504;5.316;2024-03-02T02:21:02;6.50;99.90
32522;DHT22;18963;51.504;5.316;2024-03-02T02:23:29;6.50;99.90
32522;DHT22;18963;51.504;5.316;2024-03-02T02:25:54;6.40;99.90
32522;DHT22;18963;51.504;5.316;2024-03-02T02:28:20;6.40;99.90
32522;DHT22;18963;51.504;5.316;2024-03-02T02:30:46;6.40;99.90
32522;DHT22;18963;51.504;5.316;2024-03-02T02:33:11;6.40;99.90
32522;DHT22;18963;51.504;5.316;2024-03-02T02:35:37;6.40;99.90
32522;DHT22;18963;51.504;5.316;2024-03-02T02:38:03;6.40;99.90
32522;DHT22;18963;51.504;5.316;2024-03-02T02:40:29;6.40;99.90
32522;DHT22;18963;51.504;5.316;2024-03-02T02:42:56;6.40;99.90
32522;DHT22;18963;51.504;5.316;2024-03-02T02:45:22;6.40;99.90
32522;DHT22;18963;51.504;5.316;2024-03-02T02:47:47;6.40;99.90
32522;DHT22;18963;51.504;5.316;2024-03-02T02:50:13;6.40;99.90
32522;DHT22;18963;51.504;5.316;2024-03-02T02:52:41;6.40;99.90
32522;DHT22;18963;51.504;5.316;2024-03-02T02:55:08;6.40;99.90
32522;DHT22;18963;51.504;5.316;2024-03-02T02:57:35;6.40;99.90
32522;DHT22;18963;51.504;5.316;2024-03-02T03:00:04;6.40;99.90
32522;DHT22;18963;51.504;5.316;2024-03-02T03:02:31;6.30;99.90
32522;DHT22;18963;51.504;5.316;2024-03-02T03:04:57;6.40;99.90
32522;DHT22;18963;51.504;5.316;2024-03-02T03:07:23;6.30;99.90
32522;DHT22;18963;51.504;5.316;2024-03-02T03:09:48;6.30;99.90
32522;DHT22;18963;51.504;5.316;2024-03-02T03:12:14;6.30;99.90
32522;DHT22;18963;51.504;5.316;2024-03-02T03:14:42;6.30;99.90
32522;DHT22;18963;51.504;5.316;2024-03-02T03:17:08;6.30;99.90
32522;DHT22;18963;51.504;5.316;2024-03-02T03:19:34;6.30;99.90
32522;DHT22;18963;51.504;5.316;2024-03-02T03:21:59;6.30;99.90
32522;DHT22;18963;51.504;5.316;2024-03-02T03:24:25;6.20;99.90
32522;DHT22;18963;51.504;5.316;2024-03-02T03:26:51;6.30;99.90
32522;DHT22;18963;51.504;5.316;2024-03-02T03:29:16;6.20;99.90
32522;DHT22;18963;51.504;5.316;2024-03-02T03:31:42;6.20;99.90
32522;DHT22;18963;51.504;5.316;2024-03-02T03:34:07;6.20;99.90
32522;DHT22;18963;51.504;5.316;2024-03-02T03:36:33;6.20;99.90
32522;DHT22;18963;51.504;5.316;2024-03-02T03:38:58;6.20;99.90
32522;DHT22;18963;51.504;5.316;2024-03-02T03:41:24;6.20;99.90
32522;DHT22;18963;51.504;5.316;2024-03-02T03:43:49;6.20;99.90
32522;DHT22;18963;51.504;5.316;2024-03-02T03:46:15;6.20;99.90
32522;DHT22;18963;51.504;5.316;2024-03-02T03:48:41;6.20;99.90
32522;DHT22;18963;51.504;5.316;2024-03-02T03:51:07;6.20;99.90
32522;DHT22;18963;51.504;5.316;2024-03-02T03:53:32;6.20;99.90
32522;DHT22;18963;51.504;5.316;2024-03-02T03:55:58;6.20;99.90
32522;DHT22;18963;51.504;5.316;2024-03-02T03:58:24;6.20;99.90
32522;DHT22;18963;51.504;5.316;2024-03-02T04:00:49;6.30;99.90
32522;DHT22;18963;51.504;5.316;2024-03-02T04:03:15;6.30;99.90
32522;DHT22;18963;51.504;5.316;2024-03-02T04:05:40;6.30;99.90
32522;DHT22;18963;51.504;5.316;2024-03-02T04:08:06;6.30;99.90
32522;DHT22;18963;51.504;5.316;2024-03-02T04:10:32;6.30;99.90
32522;DHT22;18963;51.504;5.316;2024-03-02T04:12:59;6.30;99.90
32522;DHT22;18963;51.504;5.316;2024-03-02T04:15:25;6.30;99.90
32522;DHT22;18963;51.504;5.316;2024-03-02T04:17:50;6.20;99.90
32522;DHT22;18963;51.504;5.316;2024-03-02T04:20:16;6.20;99.90
32522;DHT22;18963;51.504;5.316;2024-03-02T04:22:41;6.10;99.90
32522;DHT22;18963;51.504;5.316;2024-03-02T04:25:07;6.10;99.90
32522;DHT22;18963;51.504;5.316;2024-03-02T04:27:33;6.10;99.90
32522;DHT22;18963;51.504;5.316;2024-03-02T04:29:59;6.00;99.90
32522;DHT22;18963;51.504;5.316;2024-03-02T04:32:26;6.00;99.90
32522;DHT22;18963;51.504;5.316;2024-03-02T04:34:52;6.00;99.90
32522;DHT22;18963;51.504;5.316;2024-03-02T04:37:17;6.00;99.90
32522;DHT22;18963;51.504;5.316;2024-03-02T04:39:43;6.00;99.90
32522;DHT22;18963;51.504;5.316;2024-03-02T04:42:08;6.10;99.90
32522;DHT22;18963;51.504;5.316;2024-03-02T04:44:34;6.10;99.90
32522;DHT22;18963;51.504;5.316;2024-03-02T04:47:00;6.10;99.90
32522;DHT22;18963;51.504;5.316;2024-03-02T04:49:25;6.10;99.90
32522;DHT22;18963;51.504;5.316;2024-03-02T04:51:51;6.10;99.90
32522;DHT22;18963;51.504;5.316;2024-03-02T04:54:16;6.10;99.90
32522;DHT22;18963;51.504;5.316;2024-03-02T04:56:42;6.10;99.90
32522;DHT22;18963;51.504;5.316;2024-03-02T04:59:18;6.00;99.90
32522;DHT22;18963;51.504;5.316;2024-03-02T05:01:44;6.00;99.90
32522;DHT22;18963;51.504;5.316;2024-03-02T05:04:10;6.00;99.90
32522;DHT22;18963;51.504;5.316;2024-03-02T05:06:38;6.00;99.90
32522;DHT22;18963;51.504;5.316;2024-03-02T05:09:04;5.90;99.90
32522;DHT22;18963;51.504;5.316;2024-03-02T05:11:30;5.90;99.90
32522;DHT22;18963;51.504;5.316;2024-03-02T05:14:07;5.80;99.90
32522;DHT22;18963;51.504;5.316;2024-03-02T05:16:34;5.80;99.90
32522;DHT22;18963;51.504;5.316;2024-03-02T05:18:59;5.80;99.90
32522;DHT22;18963;51.504;5.316;2024-03-02T05:21:25;5.70;99.90
32522;DHT22;18963;51.504;5.316;2024-03-02T05:23:51;5.60;99.90
32522;DHT22;18963;51.504;5.316;2024-03-02T05:26:16;5.60;99.90
32522;DHT22;18963;51.504;5.316;2024-03-02T05:28:42;5.60;99.90
32522;DHT22;18963;51.504;5.316;2024-03-02T05:31:11;5.70;99.90
32522;DHT22;18963;51.504;5.316;2024-03-02T05:33:40;5.70;99.90
32522;DHT22;18963;51.504;5.316;2024-03-02T05:36:06;5.70;99.90
32522;DHT22;18963;51.504;5.316;2024-03-02T05:38:34;5.70;99.90
32522;DHT22;18963;51.504;5.316;2024-03-02T05:41:00;5.70;99.90
32522;DHT22;18963;51.504;5.316;2024-03-02T05:43:25;5.80;99.90
32522;DHT22;18963;51.504;5.316;2024-03-02T05:45:51;5.80;99.90
32522;DHT22;18963;51.504;5.316;2024-03-02T05:48:16;5.80;99.90
32522;DHT22;18963;51.504;5.316;2024-03-02T05:50:42;5.90;99.90
32522;DHT22;18963;51.504;5.316;2024-03-02T05:53:07;5.90;99.90
32522;DHT22;18963;51.504;5.316;2024-03-02T05:55:33;5.90;99.90
32522;DHT22;18963;51.504;5.316;2024-03-02T05:57:58;5.90;99.90
32522;DHT22;18963;51.504;5.316;2024-03-02T06:00:42;6.00;99.90
32522;DHT22;18963;51.504;5.316;2024-03-02T06:03:08;5.90;99.90
32522;DHT22;18963;51.504;5.316;2024-03-02T06:05:34;5.90;99.90
32522;DHT22;18963;51.504;5.316;2024-03-02T06:08:00;5.80;99.90
32522;DHT22;18963;51.504;5.316;2024-03-02T06:10:25;5.80;99.90
32522;DHT22;18963;51.504;5.316;2024-03-02T06:12:51;5.70;99.90
32522;DHT22;18963;51.504;5.316;2024-03-02T06:15:23;5.70;99.90
32522;DHT22;18963;51.504;5.316;2024-03-02T06:17:48;5.60;99.90
32522;DHT22;18963;51.504;5.316;2024-03-02T06:20:14;5.50;99.90
32522;DHT22;18963;51.504;5.316;2024-03-02T06:22:39;5.50;99.90
32522;DHT22;18963;51.504;5.316;2024-03-02T06:25:05;5.40;99.90
32522;DHT22;18963;51.504;5.316;2024-03-02T06:27:31;5.40;99.90
32522;DHT22;18963;51.504;5.316;2024-03-02T06:29:56;5.40;99.90
32522;DHT22;18963;51.504;5.316;2024-03-02T06:32:22;5.40;99.90
32522;DHT22;18963;51.504;5.316;2024-03-02T06:34:48;5.40;99.90
32522;DHT22;18963;51.504;5.316;2024-03-02T06:37:14;5.40;99.90
32522;DHT22;18963;51.504;5.316;2024-03-02T06:39:41;5.40;99.90
32522;DHT22;18963;51.504;5.316;2024-03-02T06:42:07;5.40;99.90
32522;DHT22;18963;51.504;5.316;2024-03-02T06:44:32;5.40;99.90
32522;DHT22;18963;51.504;5.316;2024-03-02T06:46:58;5.40;99.90
32522;DHT22;18963;51.504;5.316;2024-03-02T06:49:23;5.40;99.90
32522;DHT22;18963;51.504;5.316;2024-03-02T06:51:49;5.40;99.90
32522;DHT22;18963;51.504;5.316;2024-03-02T06:54:15;5.40;99.90
32522;DHT22;18963;51.504;5.316;2024-03-02T06:56:40;5.50;99.90
32522;DHT22;18963;51.504;5.316;2024-03-02T06:59:06;5.60;99.90
32522;DHT22;18963;51.504;5.316;2024-03-02T07:01:32;5.60;99.90
32522;DHT22;18963;51.504;5.316;2024-03-02T07:03:58;5.70;99.90
32522;DHT22;18963;51.504;5.316;2024-03-02T07:06:23;5.80;99.90
32522;DHT22;18963;51.504;5.316;2024-03-02T07:08:49;5.90;99.90
32522;DHT22;18963;51.504;5.316;2024-03-02T07:11:14;6.00;99.90
32522;DHT22;18963;51.504;5.316;2024-03-02T07:13:40;6.10;99.90
32522;DHT22;18963;51.504;5.316;2024-03-02T07:16:05;6.20;99.90
32522;DHT22;18963;51.504;5.316;2024-03-02T07:18:49;6.40;99.90
32522;DHT22;18963;51.504;5.316;2024-03-02T07:21:17;6.50;99.90
32522;DHT22;18963;51.504;5.316;2024-03-02T07:23:43;6.70;99.90
32522;DHT22;18963;51.504;5.316;2024-03-02T07:26:08;6.80;99.90
32522;DHT22;18963;51.504;5.316;2024-03-02T07:28:34;6.80;99.90
32522;DHT22;18963;51.504;5.316;2024-03-02T07:31:00;6.80;99.90
32522;DHT22;18963;51.504;5.316;2024-03-02T07:33:26;6.80;99.90
32522;DHT22;18963;51.504;5.316;2024-03-02T07:35:52;6.60;99.90
32522;DHT22;18963;51.504;5.316;2024-03-02T07:38:18;6.60;99.90
32522;DHT22;18963;51.504;5.316;2024-03-02T07:40:44;6.50;99.90
32522;DHT22;18963;51.504;5.316;2024-03-02T07:43:10;6.40;99.90
32522;DHT22;18963;51.504;5.316;2024-03-02T07:45:36;6.30;99.90
32522;DHT22;18963;51.504;5.316;2024-03-02T07:48:02;6.30;99.90
32522;DHT22;18963;51.504;5.316;2024-03-02T07:50:29;6.20;99.90
32522;DHT22;18963;51.504;5.316;2024-03-02T07:52:55;6.10;99.90
32522;DHT22;18963;51.504;5.316;2024-03-02T07:55:21;6.10;99.90
32522;DHT22;18963;51.504;5.316;2024-03-02T07:57:47;6.10;99.90
32522;DHT22;18963;51.504;5.316;2024-03-02T08:00:12;6.10;99.90
32522;DHT22;18963;51.504;5.316;2024-03-02T08:02:40;6.20;99.90
32522;DHT22;18963;51.504;5.316;2024-03-02T08:05:06;6.30;99.90
32522;DHT22;18963;51.504;5.316;2024-03-02T08:07:31;6.50;99.90
32522;DHT22;18963;51.504;5.316;2024-03-02T08:09:57;6.70;99.90
32522;DHT22;18963;51.504;5.316;2024-03-02T08:12:22;7.00;99.90
32522;DHT22;18963;51.504;5.316;2024-03-02T08:14:49;7.30;99.90
32522;DHT22;18963;51.504;5.316;2024-03-02T08:17:14;7.50;99.90
32522;DHT22;18963;51.504;5.316;2024-03-02T08:19:40;7.70;99.90
32522;DHT22;18963;51.504;5.316;2024-03-02T08:22:06;8.00;99.90
32522;DHT22;18963;51.504;5.316;2024-03-02T08:24:32;8.20;99.90
32522;DHT22;18963;51.504;5.316;2024-03-02T08:26:59;8.40;99.90
32522;DHT22;18963;51.504;5.316;2024-03-02T08:29:25;8.50;99.90
32522;DHT22;18963;51.504;5.316;2024-03-02T08:32:00;8.70;99.90
32522;DHT22;18963;51.504;5.316;2024-03-02T08:34:53;8.90;99.90
32522;DHT22;18963;51.504;5.316;2024-03-02T08:37:19;9.10;99.90
32522;DHT22;18963;51.504;5.316;2024-03-02T08:39:45;9.20;99.90
32522;DHT22;18963;51.504;5.316;2024-03-02T08:42:10;9.30;99.90
32522;DHT22;18963;51.504;5.316;2024-03-02T08:44:36;9.40;99.90
32522;DHT22;18963;51.504;5.316;2024-03-02T08:47:02;9.40;99.90
32522;DHT22;18963;51.504;5.316;2024-03-02T08:49:28;9.50;99.90
32522;DHT22;18963;51.504;5.316;2024-03-02T08:51:54;9.60;99.90
32522;DHT22;18963;51.504;5.316;2024-03-02T08:54:22;9.70;99.90
32522;DHT22;18963;51.504;5.316;2024-03-02T08:56:49;9.90;99.90
32522;DHT22;18963;51.504;5.316;2024-03-02T08:59:14;10.00;99.90
32522;DHT22;18963;51.504;5.316;2024-03-02T09:01:40;10.10;99.90
32522;DHT22;18963;51.504;5.316;2024-03-02T09:04:07;10.10;99.90
32522;DHT22;18963;51.504;5.316;2024-03-02T09:06:34;10.00;99.90
32522;DHT22;18963;51.504;5.316;2024-03-02T09:09:00;10.10;99.90
32522;DHT22;18963;51.504;5.316;2024-03-02T09:11:26;10.20;99.90
32522;DHT22;18963;51.504;5.316;2024-03-02T09:13:51;10.30;99.90
32522;DHT22;18963;51.504;5.316;2024-03-02T09:16:18;10.50;99.90
32522;DHT22;18963;51.504;5.316;2024-03-02T09:18:44;10.60;99.90
32522;DHT22;18963;51.504;5.316;2024-03-02T09:21:10;10.80;99.90
32522;DHT22;18963;51.504;5.316;2024-03-02T09:23:36;10.90;99.90
32522;DHT22;18963;51.504;5.316;2024-03-02T09:26:01;11.10;99.90
32522;DHT22;18963;51.504;5.316;2024-03-02T09:28:28;11.10;99.90
32522;DHT22;18963;51.504;5.316;2024-03-02T09:30:54;11.20;99.90
32522;DHT22;18963;51.504;5.316;2024-03-02T09:33:19;11.30;99.90
32522;DHT22;18963;51.504;5.316;2024-03-02T09:35:45;11.40;99.90
32522;DHT22;18963;51.504;5.316;2024-03-02T09:38:11;11.40;99.90
32522;DHT22;18963;51.504;5.316;2024-03-02T09:40:36;11.50;99.90
32522;DHT22;18963;51.504;5.316;2024-03-02T09:43:02;11.60;99.90
32522;DHT22;18963;51.504;5.316;2024-03-02T09:45:30;11.70;99.90
32522;DHT22;18963;51.504;5.316;2024-03-02T09:47:55;11.60;99.90
32522;DHT22;18963;51.504;5.316;2024-03-02T09:50:21;11.60;99.90
32522;DHT22;18963;51.504;5.316;2024-03-02T09:52:48;11.60;99.90
32522;DHT22;18963;51.504;5.316;2024-03-02T09:55:15;11.70;99.90
32522;DHT22;18963;51.504;5.316;2024-03-02T09:57:43;11.70;99.90
32522;DHT22;18963;51.504;5.316;2024-03-02T10:00:09;11.60;99.90
32522;DHT22;18963;51.504;5.316;2024-03-02T10:02:40;11.70;99.90
32522;DHT22;18963;51.504;5.316;2024-03-02T10:05:10;11.80;99.90
32522;DHT22;18963;51.504;5.316;2024-03-02T10:07:35;11.90;99.90
32522;DHT22;18963;51.504;5.316;2024-03-02T10:10:15;12.10;99.90
32522;DHT22;18963;51.504;5.316;2024-03-02T10:12:41;12.30;99.90
32522;DHT22;18963;51.504;5.316;2024-03-02T10:15:07;12.40;99.90
32522;DHT22;18963;51.504;5.316;2024-03-02T10:17:33;12.40;99.90
32522;DHT22;18963;51.504;5.316;2024-03-02T10:19:58;12.30;99.90
32522;DHT22;18963;51.504;5.316;2024-03-02T10:22:24;12.40;99.90
32522;DHT22;18963;51.504;5.316;2024-03-02T10:24:51;12.40;99.90
32522;DHT22;18963;51.504;5.316;2024-03-02T10:27:25;12.70;99.90
32522;DHT22;18963;51.504;5.316;2024-03-02T10:29:51;12.70;99.90
32522;DHT22;18963;51.504;5.316;2024-03-02T10:32:17;12.90;99.90
32522;DHT22;18963;51.504;5.316;2024-03-02T10:34:46;12.90;99.90
32522;DHT22;18963;51.504;5.316;2024-03-02T10:37:12;13.00;99.90
32522;DHT22;18963;51.504;5.316;2024-03-02T10:39:39;13.20;99.90
32522;DHT22;18963;51.504;5.316;2024-03-02T10:42:09;13.20;99.90
32522;DHT22;18963;51.504;5.316;2024-03-02T10:44:35;13.10;99.90
32522;DHT22;18963;51.504;5.316;2024-03-02T10:47:03;13.20;99.90
32522;DHT22;18963;51.504;5.316;2024-03-02T10:49:30;13.30;99.90
32522;DHT22;18963;51.504;5.316;2024-03-02T10:51:59;13.40;99.90
32522;DHT22;18963;51.504;5.316;2024-03-02T10:54:26;13.50;99.90
32522;DHT22;18963;51.504;5.316;2024-03-02T10:56:53;13.60;99.90
32522;DHT22;18963;51.504;5.316;2024-03-02T11:01:55;13.50;99.90
32522;DHT22;18963;51.504;5.316;2024-03-02T11:04:24;13.50;99.90
32522;DHT22;18963;51.504;5.316;2024-03-02T11:06:51;13.70;99.90
32522;DHT22;18963;51.504;5.316;2024-03-02T11:09:20;14.00;99.90
32522;DHT22;18963;51.504;5.316;2024-03-02T11:11:53;14.30;99.90
32522;DHT22;18963;51.504;5.316;2024-03-02T11:14:24;14.50;99.90
32522;DHT22;18963;51.504;5.316;2024-03-02T11:16:51;14.60;99.90
32522;DHT22;18963;51.504;5.316;2024-03-02T11:19:18;14.60;99.90
32522;DHT22;18963;51.504;5.316;2024-03-02T11:21:44;14.70;99.90
32522;DHT22;18963;51.504;5.316;2024-03-02T11:24:40;14.70;99.90
32522;DHT22;18963;51.504;5.316;2024-03-02T11:27:12;14.80;99.90
32522;DHT22;18963;51.504;5.316;2024-03-02T11:29:43;14.80;99.90
32522;DHT22;18963;51.504;5.316;2024-03-02T11:32:21;15.00;99.90
32522;DHT22;18963;51.504;5.316;2024-03-02T11:34:48;15.00;99.90
32522;DHT22;18963;51.504;5.316;2024-03-02T11:37:18;15.10;99.10
32522;DHT22;18963;51.504;5.316;2024-03-02T11:39:46;15.30;98.40
32522;DHT22;18963;51.504;5.316;2024-03-02T11:42:13;15.00;98.00
32522;DHT22;18963;51.504;5.316;2024-03-02T11:44:46;15.00;99.20
32522;DHT22;18963;51.504;5.316;2024-03-02T11:47:16;15.20;98.20
32522;DHT22;18963;51.504;5.316;2024-03-02T11:49:46;15.50;98.90
32522;DHT22;18963;51.504;5.316;2024-03-02T11:52:13;16.00;98.90
32522;DHT22;18963;51.504;5.316;2024-03-02T11:54:42;16.20;95.80
32522;DHT22;18963;51.504;5.316;2024-03-02T11:57:17;16.30;95.30
32522;DHT22;18963;51.504;5.316;2024-03-02T11:59:44;16.70;97.00
32522;DHT22;18963;51.504;5.316;2024-03-02T12:02:20;16.50;94.10
32522;DHT22;18963;51.504;5.316;2024-03-02T12:04:47;16.20;95.30
32522;DHT22;18963;51.504;5.316;2024-03-02T12:07:19;15.80;93.50
32522;DHT22;18963;51.504;5.316;2024-03-02T12:09:49;15.20;94.90
32522;DHT22;18963;51.504;5.316;2024-03-02T12:12:24;14.90;96.50
32522;DHT22;18963;51.504;5.316;2024-03-02T12:14:51;14.90;97.70
32522;DHT22;18963;51.504;5.316;2024-03-02T12:17:22;14.70;97.80
32522;DHT22;18963;51.504;5.316;2024-03-02T12:19:48;14.70;97.30
32522;DHT22;18963;51.504;5.316;2024-03-02T12:22:14;14.40;96.60
32522;DHT22;18963;51.504;5.316;2024-03-02T12:24:41;14.30;98.50
32522;DHT22;18963;51.504;5.316;2024-03-02T12:27:07;14.00;97.40
32522;DHT22;18963;51.504;5.316;2024-03-02T12:29:34;13.80;98.50
32522;DHT22;18963;51.504;5.316;2024-03-02T12:32:00;13.70;99.90
32522;DHT22;18963;51.504;5.316;2024-03-02T12:34:27;13.60;99.90
32522;DHT22;18963;51.504;5.316;2024-03-02T12:36:53;13.60;99.90
32522;DHT22;18963;51.504;5.316;2024-03-02T12:39:19;13.50;99.50
32522;DHT22;18963;51.504;5.316;2024-03-02T12:41:46;13.40;99.90
32522;DHT22;18963;51.504;5.316;2024-03-02T12:44:12;13.40;99.90
32522;DHT22;18963;51.504;5.316;2024-03-02T12:46:37;13.60;99.90
32522;DHT22;18963;51.504;5.316;2024-03-02T12:49:10;13.50;99.90
32522;DHT22;18963;51.504;5.316;2024-03-02T12:51:37;13.50;99.90
32522;DHT22;18963;51.504;5.316;2024-03-02T12:54:09;13.40;99.90
32522;DHT22;18963;51.504;5.316;2024-03-02T12:56:38;13.40;99.90
32522;DHT22;18963;51.504;5.316;2024-03-02T12:59:04;13.30;99.90
32522;DHT22;18963;51.504;5.316;2024-03-02T13:01:30;13.30;99.90
32522;DHT22;18963;51.504;5.316;2024-03-02T13:03:58;13.30;99.90
32522;DHT22;18963;51.504;5.316;2024-03-02T13:06:25;13.20;99.90
32522;DHT22;18963;51.504;5.316;2024-03-02T13:08:53;13.10;99.90
32522;DHT22;18963;51.504;5.316;2024-03-02T13:11:19;13.00;99.90
32522;DHT22;18963;51.504;5.316;2024-03-02T13:13:45;13.00;99.90
32522;DHT22;18963;51.504;5.316;2024-03-02T13:16:10;12.90;99.90
32522;DHT22;18963;51.504;5.316;2024-03-02T13:18:38;12.90;99.90
32522;DHT22;18963;51.504;5.316;2024-03-02T13:21:03;12.80;99.90
32522;DHT22;18963;51.504;5.316;2024-03-02T13:23:29;12.80;99.90
32522;DHT22;18963;51.504;5.316;2024-03-02T13:25:58;12.80;99.90
32522;DHT22;18963;51.504;5.316;2024-03-02T13:28:24;12.70;99.90
32522;DHT22;18963;51.504;5.316;2024-03-02T13:30:50;12.70;99.90
32522;DHT22;18963;51.504;5.316;2024-03-02T13:33:16;12.70;99.90
32522;DHT22;18963;51.504;5.316;2024-03-02T13:35:44;12.70;99.90
32522;DHT22;18963;51.504;5.316;2024-03-02T13:38:10;12.60;99.90
32522;DHT22;18963;51.504;5.316;2024-03-02T13:40:36;12.60;99.90
32522;DHT22;18963;51.504;5.316;2024-03-02T13:43:02;12.70;99.90
32522;DHT22;18963;51.504;5.316;2024-03-02T13:45:28;12.70;99.90
32522;DHT22;18963;51.504;5.316;2024-03-02T13:47:54;12.80;99.90
32522;DHT22;18963;51.504;5.316;2024-03-02T13:50:19;12.80;99.90
32522;DHT22;18963;51.504;5.316;2024-03-02T13:52:45;12.90;99.90
32522;DHT22;18963;51.504;5.316;2024-03-02T13:55:11;12.90;99.90
32522;DHT22;18963;51.504;5.316;2024-03-02T13:57:37;12.80;99.90
32522;DHT22;18963;51.504;5.316;2024-03-02T14:00:03;12.80;99.90
32522;DHT22;18963;51.504;5.316;2024-03-02T14:02:35;12.80;99.90
32522;DHT22;18963;51.504;5.316;2024-03-02T14:05:01;12.80;99.90
32522;DHT22;18963;51.504;5.316;2024-03-02T14:07:27;12.80;99.90
32522;DHT22;18963;51.504;5.316;2024-03-02T14:09:52;12.80;99.90
32522;DHT22;18963;51.504;5.316;2024-03-02T14:12:18;12.90;99.90
32522;DHT22;18963;51.504;5.316;2024-03-02T14:14:43;12.80;99.90
32522;DHT22;18963;51.504;5.316;2024-03-02T14:17:09;12.80;99.90
32522;DHT22;18963;51.504;5.316;2024-03-02T14:19:40;12.80;99.90
32522;DHT22;18963;51.504;5.316;2024-03-02T14:22:05;12.80;99.90
32522;DHT22;18963;51.504;5.316;2024-03-02T14:24:31;12.90;99.90
32522;DHT22;18963;51.504;5.316;2024-03-02T14:26:56;12.80;99.90
32522;DHT22;18963;51.504;5.316;2024-03-02T14:29:28;12.90;99.90
32522;DHT22;18963;51.504;5.316;2024-03-02T14:31:54;12.80;99.90
32522;DHT22;18963;51.504;5.316;2024-03-02T14:34:20;12.80;99.90
32522;DHT22;18963;51.504;5.316;2024-03-02T14:36:45;12.70;99.90
32522;DHT22;18963;51.504;5.316;2024-03-02T14:39:11;12.70;99.90
32522;DHT22;18963;51.504;5.316;2024-03-02T14:41:37;12.60;99.90
32522;DHT22;18963;51.504;5.316;2024-03-02T14:44:03;12.70;99.90
32522;DHT22;18963;51.504;5.316;2024-03-02T14:46:29;12.60;99.90
32522;DHT22;18963;51.504;5.316;2024-03-02T14:48:55;12.50;99.90
32522;DHT22;18963;51.504;5.316;2024-03-02T14:51:20;12.50;99.90
32522;DHT22;18963;51.504;5.316;2024-03-02T14:53:46;12.50;99.90
32522;DHT22;18963;51.504;5.316;2024-03-02T14:56:12;12.50;99.90
32522;DHT22;18963;51.504;5.316;2024-03-02T14:58:39;12.50;99.90
32522;DHT22;18963;51.504;5.316;2024-03-02T15:01:05;12.50;99.90
32522;DHT22;18963;51.504;5.316;2024-03-02T15:03:35;12.60;99.90
32522;DHT22;18963;51.504;5.316;2024-03-02T15:06:01;12.60;99.90
32522;DHT22;18963;51.504;5.316;2024-03-02T15:08:29;12.60;99.90
32522;DHT22;18963;51.504;5.316;2024-03-02T15:10:55;12.60;99.90
32522;DHT22;18963;51.504;5.316;2024-03-02T15:13:21;12.70;99.90
32522;DHT22;18963;51.504;5.316;2024-03-02T15:15:47;12.70;99.90
32522;DHT22;18963;51.504;5.316;2024-03-02T15:18:13;12.70;99.90
32522;DHT22;18963;51.504;5.316;2024-03-02T15:20:39;12.70;99.90
32522;DHT22;18963;51.504;5.316;2024-03-02T15:23:05;12.80;99.90
32522;DHT22;18963;51.504;5.316;2024-03-02T15:25:31;12.80;99.90
32522;DHT22;18963;51.504;5.316;2024-03-02T15:27:56;12.70;99.90
32522;DHT22;18963;51.504;5.316;2024-03-02T15:30:22;12.60;99.90
32522;DHT22;18963;51.504;5.316;2024-03-02T15:32:48;12.70;99.90
32522;DHT22;18963;51.504;5.316;2024-03-02T15:35:13;12.70;99.90
32522;DHT22;18963;51.504;5.316;2024-03-02T15:37:39;12.70;99.90
32522;DHT22;18963;51.504;5.316;2024-03-02T15:40:05;12.70;99.90
32522;DHT22;18963;51.504;5.316;2024-03-02T15:42:35;12.60;99.90